Aviation

FTHA31 MTPP 171100
TAF MTPP 171100Z 1712/1812 11008KT 9000 FEW020
BECMG 1718/172127010KT SCT026CB
PROB30 TEMPO 1800/1806 4800 TSRA SCT024CB
BECMG 1807/1810 VRB02KT 9000 NSW FEW020=